sensor_id;sensor_type;location;lat;lon;timestamp;P1;durP1;ratioP1;P2;durP2;ratioP2
5690;SDS011;2870;42.680;23.364;2023-09-19T00:01:32;11.40;;;6.27;;
5690;SDS011;2870;42.680;23.364;2023-09-19T00:04:01;17.67;;;7.83;;
5690;SDS011;2870;42.680;23.364;2023-09-19T00:06:28;9.10;;;6.57;;
5690;SDS011;2870;42.680;23.364;2023-09-19T00:08:56;16.63;;;7.20;;
5690;SDS011;2870;42.680;23.364;2023-09-19T00:11:25;11.13;;;6.50;;
5690;SDS011;2870;42.680;23.364;2023-09-19T00:13:52;11.40;;;6.90;;
5690;SDS011;2870;42.680;23.364;2023-09-19T00:16:19;9.53;;;6.13;;
5690;SDS011;2870;42.680;23.364;2023-09-19T00:18:46;11.90;;;6.60;;
5690;SDS011;2870;42.680;23.364;2023-09-19T00:21:15;13.50;;;6.57;;
5690;SDS011;2870;42.680;23.364;2023-09-19T00:23:42;12.47;;;7.00;;
5690;SDS011;2870;42.680;23.364;2023-09-19T00:26:08;11.33;;;6.60;;
5690;SDS011;2870;42.680;23.364;2023-09-19T00:28:35;11.40;;;6.90;;
5690;SDS011;2870;42.680;23.364;2023-09-19T00:31:02;10.97;;;6.97;;
5690;SDS011;2870;42.680;23.364;2023-09-19T00:33:30;15.33;;;7.93;;
5690;SDS011;2870;42.680;23.364;2023-09-19T00:35:56;9.90;;;6.80;;
5690;SDS011;2870;42.680;23.364;2023-09-19T00:38:26;14.73;;;7.67;;
5690;SDS011;2870;42.680;23.364;2023-09-19T00:40:53;11.70;;;7.53;;
5690;SDS011;2870;42.680;23.364;2023-09-19T00:43:22;12.80;;;7.30;;
5690;SDS011;2870;42.680;23.364;2023-09-19T00:45:50;10.90;;;6.67;;
5690;SDS011;2870;42.680;23.364;2023-09-19T00:48:19;10.63;;;7.57;;
5690;SDS011;2870;42.680;23.364;2023-09-19T00:50:47;12.77;;;8.33;;
5690;SDS011;2870;42.680;23.364;2023-09-19T00:53:15;13.00;;;8.50;;
5690;SDS011;2870;42.680;23.364;2023-09-19T00:55:46;13.80;;;8.37;;
5690;SDS011;2870;42.680;23.364;2023-09-19T00:58:13;11.03;;;7.63;;
5690;SDS011;2870;42.680;23.364;2023-09-19T01:00:40;12.33;;;7.73;;
5690;SDS011;2870;42.680;23.364;2023-09-19T01:03:09;14.13;;;7.27;;
5690;SDS011;2870;42.680;23.364;2023-09-19T01:05:38;15.60;;;7.80;;
5690;SDS011;2870;42.680;23.364;2023-09-19T01:08:05;10.40;;;7.37;;
5690;SDS011;2870;42.680;23.364;2023-09-19T01:10:33;13.23;;;7.67;;
5690;SDS011;2870;42.680;23.364;2023-09-19T01:13:03;19.30;;;11.43;;
5690;SDS011;2870;42.680;23.364;2023-09-19T01:15:39;10.50;;;7.23;;
5690;SDS011;2870;42.680;23.364;2023-09-19T01:18:16;14.73;;;8.30;;
5690;SDS011;2870;42.680;23.364;2023-09-19T01:20:55;10.17;;;7.60;;
5690;SDS011;2870;42.680;23.364;2023-09-19T01:23:31;13.33;;;8.50;;
5690;SDS011;2870;42.680;23.364;2023-09-19T01:26:23;14.17;;;8.97;;
5690;SDS011;2870;42.680;23.364;2023-09-19T01:29:16;15.27;;;8.90;;
5690;SDS011;2870;42.680;23.364;2023-09-19T01:31:59;15.77;;;9.20;;
5690;SDS011;2870;42.680;23.364;2023-09-19T01:34:42;12.77;;;8.53;;
5690;SDS011;2870;42.680;23.364;2023-09-19T01:37:11;15.00;;;9.20;;
5690;SDS011;2870;42.680;23.364;2023-09-19T01:39:39;12.87;;;8.50;;
5690;SDS011;2870;42.680;23.364;2023-09-19T01:42:08;17.63;;;9.20;;
5690;SDS011;2870;42.680;23.364;2023-09-19T01:44:51;13.57;;;9.00;;
5690;SDS011;2870;42.680;23.364;2023-09-19T01:47:26;11.67;;;8.43;;
5690;SDS011;2870;42.680;23.364;2023-09-19T01:50:00;14.83;;;10.20;;
5690;SDS011;2870;42.680;23.364;2023-09-19T01:52:35;14.77;;;9.43;;
5690;SDS011;2870;42.680;23.364;2023-09-19T01:55:09;15.80;;;11.13;;
5690;SDS011;2870;42.680;23.364;2023-09-19T01:57:40;18.20;;;10.33;;
5690;SDS011;2870;42.680;23.364;2023-09-19T02:02:54;19.80;;;9.93;;
5690;SDS011;2870;42.680;23.364;2023-09-19T02:05:24;25.63;;;13.53;;
5690;SDS011;2870;42.680;23.364;2023-09-19T02:07:52;18.43;;;11.63;;
5690;SDS011;2870;42.680;23.364;2023-09-19T02:10:19;16.07;;;10.20;;
5690;SDS011;2870;42.680;23.364;2023-09-19T02:12:46;13.10;;;9.10;;
5690;SDS011;2870;42.680;23.364;2023-09-19T02:15:13;14.30;;;10.37;;
5690;SDS011;2870;42.680;23.364;2023-09-19T02:17:41;15.53;;;8.80;;
5690;SDS011;2870;42.680;23.364;2023-09-19T02:20:09;15.90;;;8.90;;
5690;SDS011;2870;42.680;23.364;2023-09-19T02:22:40;13.27;;;8.60;;
5690;SDS011;2870;42.680;23.364;2023-09-19T02:25:07;14.37;;;8.57;;
5690;SDS011;2870;42.680;23.364;2023-09-19T02:27:34;17.70;;;8.57;;
5690;SDS011;2870;42.680;23.364;2023-09-19T02:30:01;11.80;;;8.67;;
5690;SDS011;2870;42.680;23.364;2023-09-19T02:32:29;11.70;;;8.50;;
5690;SDS011;2870;42.680;23.364;2023-09-19T02:34:56;11.80;;;7.80;;
5690;SDS011;2870;42.680;23.364;2023-09-19T02:37:25;13.53;;;8.43;;
5690;SDS011;2870;42.680;23.364;2023-09-19T02:39:52;13.73;;;8.20;;
5690;SDS011;2870;42.680;23.364;2023-09-19T02:42:19;13.97;;;9.13;;
5690;SDS011;2870;42.680;23.364;2023-09-19T02:44:45;14.10;;;8.37;;
5690;SDS011;2870;42.680;23.364;2023-09-19T02:47:13;16.33;;;9.10;;
5690;SDS011;2870;42.680;23.364;2023-09-19T02:49:41;14.80;;;8.20;;
5690;SDS011;2870;42.680;23.364;2023-09-19T02:52:08;12.13;;;8.13;;
5690;SDS011;2870;42.680;23.364;2023-09-19T02:54:38;15.87;;;9.20;;
5690;SDS011;2870;42.680;23.364;2023-09-19T02:57:05;12.63;;;8.50;;
5690;SDS011;2870;42.680;23.364;2023-09-19T02:59:33;17.07;;;9.30;;
5690;SDS011;2870;42.680;23.364;2023-09-19T03:02:01;15.23;;;10.40;;
5690;SDS011;2870;42.680;23.364;2023-09-19T03:04:29;16.13;;;9.77;;
5690;SDS011;2870;42.680;23.364;2023-09-19T03:06:58;13.10;;;7.77;;
5690;SDS011;2870;42.680;23.364;2023-09-19T03:09:26;15.70;;;9.50;;
5690;SDS011;2870;42.680;23.364;2023-09-19T03:11:54;12.43;;;8.47;;
5690;SDS011;2870;42.680;23.364;2023-09-19T03:14:21;16.85;;;8.40;;
5690;SDS011;2870;42.680;23.364;2023-09-19T03:16:48;15.40;;;8.60;;
5690;SDS011;2870;42.680;23.364;2023-09-19T03:19:17;16.80;;;8.90;;
5690;SDS011;2870;42.680;23.364;2023-09-19T03:21:46;14.17;;;8.90;;
5690;SDS011;2870;42.680;23.364;2023-09-19T03:24:15;13.23;;;8.67;;
5690;SDS011;2870;42.680;23.364;2023-09-19T03:26:42;16.50;;;8.83;;
5690;SDS011;2870;42.680;23.364;2023-09-19T03:29:11;11.60;;;8.10;;
5690;SDS011;2870;42.680;23.364;2023-09-19T03:31:39;13.83;;;9.47;;
5690;SDS011;2870;42.680;23.364;2023-09-19T03:34:05;11.40;;;8.47;;
5690;SDS011;2870;42.680;23.364;2023-09-19T03:36:34;12.27;;;8.47;;
5690;SDS011;2870;42.680;23.364;2023-09-19T03:39:01;12.53;;;8.40;;
5690;SDS011;2870;42.680;23.364;2023-09-19T03:41:30;15.50;;;8.40;;
5690;SDS011;2870;42.680;23.364;2023-09-19T03:43:56;17.80;;;8.33;;
5690;SDS011;2870;42.680;23.364;2023-09-19T03:46:25;13.30;;;9.47;;
5690;SDS011;2870;42.680;23.364;2023-09-19T03:48:51;14.77;;;9.07;;
5690;SDS011;2870;42.680;23.364;2023-09-19T03:51:19;15.83;;;9.90;;
5690;SDS011;2870;42.680;23.364;2023-09-19T03:53:46;16.40;;;9.40;;
5690;SDS011;2870;42.680;23.364;2023-09-19T03:56:14;21.00;;;11.60;;
5690;SDS011;2870;42.680;23.364;2023-09-19T03:58:41;18.30;;;10.80;;
5690;SDS011;2870;42.680;23.364;2023-09-19T04:01:07;19.17;;;11.53;;
5690;SDS011;2870;42.680;23.364;2023-09-19T04:03:35;17.93;;;11.30;;
5690;SDS011;2870;42.680;23.364;2023-09-19T04:06:11;16.03;;;11.70;;
5690;SDS011;2870;42.680;23.364;2023-09-19T04:08:38;12.97;;;9.50;;
5690;SDS011;2870;42.680;23.364;2023-09-19T04:11:05;14.90;;;9.93;;
5690;SDS011;2870;42.680;23.364;2023-09-19T04:13:32;23.80;;;10.30;;
5690;SDS011;2870;42.680;23.364;2023-09-19T04:15:59;16.77;;;10.03;;
5690;SDS011;2870;42.680;23.364;2023-09-19T04:18:26;15.10;;;9.23;;
5690;SDS011;2870;42.680;23.364;2023-09-19T04:20:54;20.17;;;10.07;;
5690;SDS011;2870;42.680;23.364;2023-09-19T04:23:21;16.70;;;8.97;;
5690;SDS011;2870;42.680;23.364;2023-09-19T04:25:47;14.53;;;9.53;;
5690;SDS011;2870;42.680;23.364;2023-09-19T04:28:14;14.93;;;9.27;;
5690;SDS011;2870;42.680;23.364;2023-09-19T04:30:41;14.83;;;9.13;;
5690;SDS011;2870;42.680;23.364;2023-09-19T04:33:09;17.47;;;9.50;;
5690;SDS011;2870;42.680;23.364;2023-09-19T04:35:36;17.70;;;8.50;;
5690;SDS011;2870;42.680;23.364;2023-09-19T04:38:05;15.00;;;9.03;;
5690;SDS011;2870;42.680;23.364;2023-09-19T04:40:32;13.77;;;9.70;;
5690;SDS011;2870;42.680;23.364;2023-09-19T04:42:59;13.90;;;8.83;;
5690;SDS011;2870;42.680;23.364;2023-09-19T04:45:27;19.93;;;10.43;;
5690;SDS011;2870;42.680;23.364;2023-09-19T04:47:54;12.97;;;9.37;;
5690;SDS011;2870;42.680;23.364;2023-09-19T04:50:21;13.10;;;10.10;;
5690;SDS011;2870;42.680;23.364;2023-09-19T04:52:53;14.73;;;8.87;;
5690;SDS011;2870;42.680;23.364;2023-09-19T04:55:21;16.50;;;9.60;;
5690;SDS011;2870;42.680;23.364;2023-09-19T04:57:49;19.23;;;10.27;;
5690;SDS011;2870;42.680;23.364;2023-09-19T05:00:19;14.93;;;9.90;;
5690;SDS011;2870;42.680;23.364;2023-09-19T05:02:49;13.10;;;9.23;;
5690;SDS011;2870;42.680;23.364;2023-09-19T05:05:17;18.60;;;9.77;;
5690;SDS011;2870;42.680;23.364;2023-09-19T05:07:44;16.87;;;9.40;;
5690;SDS011;2870;42.680;23.364;2023-09-19T05:10:12;15.77;;;9.23;;
5690;SDS011;2870;42.680;23.364;2023-09-19T05:12:40;13.93;;;8.63;;
5690;SDS011;2870;42.680;23.364;2023-09-19T05:15:10;18.73;;;9.60;;
5690;SDS011;2870;42.680;23.364;2023-09-19T05:17:37;15.10;;;9.53;;
5690;SDS011;2870;42.680;23.364;2023-09-19T05:20:05;19.83;;;10.90;;
5690;SDS011;2870;42.680;23.364;2023-09-19T05:22:41;16.90;;;9.57;;
5690;SDS011;2870;42.680;23.364;2023-09-19T05:25:08;15.10;;;9.07;;
5690;SDS011;2870;42.680;23.364;2023-09-19T05:27:36;13.70;;;8.30;;
5690;SDS011;2870;42.680;23.364;2023-09-19T05:30:04;15.87;;;8.50;;
5690;SDS011;2870;42.680;23.364;2023-09-19T05:32:32;12.73;;;8.17;;
5690;SDS011;2870;42.680;23.364;2023-09-19T05:34:59;18.50;;;8.50;;
5690;SDS011;2870;42.680;23.364;2023-09-19T05:37:26;12.40;;;8.30;;
5690;SDS011;2870;42.680;23.364;2023-09-19T05:39:52;14.70;;;8.50;;
5690;SDS011;2870;42.680;23.364;2023-09-19T05:42:19;12.97;;;8.23;;
5690;SDS011;2870;42.680;23.364;2023-09-19T05:44:46;12.00;;;8.03;;
5690;SDS011;2870;42.680;23.364;2023-09-19T05:47:14;11.53;;;8.00;;
5690;SDS011;2870;42.680;23.364;2023-09-19T05:49:41;12.27;;;7.77;;
5690;SDS011;2870;42.680;23.364;2023-09-19T05:52:09;15.10;;;7.27;;
5690;SDS011;2870;42.680;23.364;2023-09-19T05:54:35;11.40;;;7.60;;
5690;SDS011;2870;42.680;23.364;2023-09-19T05:57:02;13.60;;;7.70;;
5690;SDS011;2870;42.680;23.364;2023-09-19T05:59:29;16.70;;;7.10;;
5690;SDS011;2870;42.680;23.364;2023-09-19T06:01:57;13.03;;;6.97;;
5690;SDS011;2870;42.680;23.364;2023-09-19T06:04:26;11.80;;;7.10;;
5690;SDS011;2870;42.680;23.364;2023-09-19T06:06:52;18.03;;;7.20;;
5690;SDS011;2870;42.680;23.364;2023-09-19T06:09:19;11.73;;;6.83;;
5690;SDS011;2870;42.680;23.364;2023-09-19T06:11:47;23.33;;;6.77;;
5690;SDS011;2870;42.680;23.364;2023-09-19T06:14:13;13.83;;;7.57;;
5690;SDS011;2870;42.680;23.364;2023-09-19T06:16:43;13.30;;;7.00;;
5690;SDS011;2870;42.680;23.364;2023-09-19T06:19:10;12.93;;;7.23;;
5690;SDS011;2870;42.680;23.364;2023-09-19T06:21:38;10.10;;;7.03;;
5690;SDS011;2870;42.680;23.364;2023-09-19T06:24:05;22.63;;;8.07;;
5690;SDS011;2870;42.680;23.364;2023-09-19T06:26:32;15.80;;;7.43;;
5690;SDS011;2870;42.680;23.364;2023-09-19T06:28:59;19.13;;;8.80;;
5690;SDS011;2870;42.680;23.364;2023-09-19T06:31:26;13.83;;;7.80;;
5690;SDS011;2870;42.680;23.364;2023-09-19T06:33:53;11.90;;;7.33;;
5690;SDS011;2870;42.680;23.364;2023-09-19T06:36:19;24.83;;;7.90;;
5690;SDS011;2870;42.680;23.364;2023-09-19T06:38:48;13.40;;;7.10;;
5690;SDS011;2870;42.680;23.364;2023-09-19T06:41:16;10.80;;;6.63;;
5690;SDS011;2870;42.680;23.364;2023-09-19T06:43:43;13.80;;;6.63;;
5690;SDS011;2870;42.680;23.364;2023-09-19T06:46:10;16.37;;;7.20;;
5690;SDS011;2870;42.680;23.364;2023-09-19T06:48:37;16.13;;;7.00;;
5690;SDS011;2870;42.680;23.364;2023-09-19T06:51:04;11.83;;;7.03;;
5690;SDS011;2870;42.680;23.364;2023-09-19T06:53:31;12.00;;;6.40;;
5690;SDS011;2870;42.680;23.364;2023-09-19T06:56:01;13.67;;;6.73;;
5690;SDS011;2870;42.680;23.364;2023-09-19T06:58:28;10.87;;;6.90;;
5690;SDS011;2870;42.680;23.364;2023-09-19T07:00:56;11.30;;;6.80;;
5690;SDS011;2870;42.680;23.364;2023-09-19T07:03:23;12.50;;;7.07;;
5690;SDS011;2870;42.680;23.364;2023-09-19T07:05:51;12.80;;;7.20;;
5690;SDS011;2870;42.680;23.364;2023-09-19T07:08:21;11.33;;;6.27;;
5690;SDS011;2870;42.680;23.364;2023-09-19T07:10:48;12.20;;;7.13;;
5690;SDS011;2870;42.680;23.364;2023-09-19T07:13:19;12.27;;;5.97;;
5690;SDS011;2870;42.680;23.364;2023-09-19T07:15:46;15.53;;;6.70;;
5690;SDS011;2870;42.680;23.364;2023-09-19T07:18:13;13.53;;;5.90;;
5690;SDS011;2870;42.680;23.364;2023-09-19T07:20:41;18.20;;;7.00;;
5690;SDS011;2870;42.680;23.364;2023-09-19T07:23:10;16.00;;;6.80;;
5690;SDS011;2870;42.680;23.364;2023-09-19T07:25:39;10.10;;;5.93;;
5690;SDS011;2870;42.680;23.364;2023-09-19T07:28:06;11.70;;;5.83;;
5690;SDS011;2870;42.680;23.364;2023-09-19T07:30:35;8.70;;;6.00;;
5690;SDS011;2870;42.680;23.364;2023-09-19T07:33:04;14.43;;;5.57;;
5690;SDS011;2870;42.680;23.364;2023-09-19T07:35:31;14.80;;;5.90;;
5690;SDS011;2870;42.680;23.364;2023-09-19T07:37:58;10.67;;;5.73;;
5690;SDS011;2870;42.680;23.364;2023-09-19T07:40:26;9.90;;;6.50;;
5690;SDS011;2870;42.680;23.364;2023-09-19T07:42:54;10.00;;;5.70;;
5690;SDS011;2870;42.680;23.364;2023-09-19T07:45:20;14.93;;;6.83;;
5690;SDS011;2870;42.680;23.364;2023-09-19T07:47:49;10.93;;;6.73;;
5690;SDS011;2870;42.680;23.364;2023-09-19T07:50:17;11.47;;;6.57;;
5690;SDS011;2870;42.680;23.364;2023-09-19T07:52:45;9.60;;;6.03;;
5690;SDS011;2870;42.680;23.364;2023-09-19T07:55:12;17.40;;;6.37;;
5690;SDS011;2870;42.680;23.364;2023-09-19T07:57:42;14.57;;;6.47;;
5690;SDS011;2870;42.680;23.364;2023-09-19T08:00:09;26.43;;;7.10;;
5690;SDS011;2870;42.680;23.364;2023-09-19T08:02:37;18.37;;;6.17;;
5690;SDS011;2870;42.680;23.364;2023-09-19T08:05:06;12.10;;;6.50;;
5690;SDS011;2870;42.680;23.364;2023-09-19T08:07:35;9.43;;;6.50;;
5690;SDS011;2870;42.680;23.364;2023-09-19T08:10:02;16.00;;;6.27;;
5690;SDS011;2870;42.680;23.364;2023-09-19T08:12:29;11.30;;;7.10;;
5690;SDS011;2870;42.680;23.364;2023-09-19T08:14:57;10.03;;;6.23;;
5690;SDS011;2870;42.680;23.364;2023-09-19T08:17:24;11.43;;;7.07;;
5690;SDS011;2870;42.680;23.364;2023-09-19T08:19:51;13.90;;;7.93;;
5690;SDS011;2870;42.680;23.364;2023-09-19T08:22:19;12.77;;;7.13;;
5690;SDS011;2870;42.680;23.364;2023-09-19T08:24:47;13.43;;;6.50;;
5690;SDS011;2870;42.680;23.364;2023-09-19T08:27:14;12.93;;;6.70;;
5690;SDS011;2870;42.680;23.364;2023-09-19T08:29:43;19.53;;;6.70;;
5690;SDS011;2870;42.680;23.364;2023-09-19T08:32:10;11.60;;;5.57;;
5690;SDS011;2870;42.680;23.364;2023-09-19T08:34:37;10.83;;;6.30;;
5690;SDS011;2870;42.680;23.364;2023-09-19T08:37:04;11.90;;;5.80;;
5690;SDS011;2870;42.680;23.364;2023-09-19T08:39:32;13.00;;;6.60;;
5690;SDS011;2870;42.680;23.364;2023-09-19T08:42:02;10.27;;;6.87;;
5690;SDS011;2870;42.680;23.364;2023-09-19T08:44:29;18.60;;;7.30;;
5690;SDS011;2870;42.680;23.364;2023-09-19T08:47:07;13.27;;;7.03;;
5690;SDS011;2870;42.680;23.364;2023-09-19T08:49:39;10.77;;;6.40;;
5690;SDS011;2870;42.680;23.364;2023-09-19T08:52:16;12.97;;;6.40;;
5690;SDS011;2870;42.680;23.364;2023-09-19T08:54:50;10.43;;;6.63;;
5690;SDS011;2870;42.680;23.364;2023-09-19T08:57:18;13.63;;;6.80;;
5690;SDS011;2870;42.680;23.364;2023-09-19T08:59:47;10.80;;;7.90;;
5690;SDS011;2870;42.680;23.364;2023-09-19T09:02:15;14.10;;;7.40;;
5690;SDS011;2870;42.680;23.364;2023-09-19T09:04:44;19.20;;;6.80;;
5690;SDS011;2870;42.680;23.364;2023-09-19T09:07:12;13.73;;;6.30;;
5690;SDS011;2870;42.680;23.364;2023-09-19T09:09:40;13.60;;;6.83;;
5690;SDS011;2870;42.680;23.364;2023-09-19T09:12:11;9.47;;;6.40;;
5690;SDS011;2870;42.680;23.364;2023-09-19T09:14:40;18.33;;;7.60;;
5690;SDS011;2870;42.680;23.364;2023-09-19T09:17:10;9.13;;;6.53;;
5690;SDS011;2870;42.680;23.364;2023-09-19T09:19:37;15.30;;;6.40;;
5690;SDS011;2870;42.680;23.364;2023-09-19T09:22:06;9.10;;;6.00;;
5690;SDS011;2870;42.680;23.364;2023-09-19T09:24:34;13.73;;;6.83;;
5690;SDS011;2870;42.680;23.364;2023-09-19T09:27:03;13.53;;;6.43;;
5690;SDS011;2870;42.680;23.364;2023-09-19T09:32:20;10.00;;;6.80;;
5690;SDS011;2870;42.680;23.364;2023-09-19T09:34:49;13.40;;;6.20;;
5690;SDS011;2870;42.680;23.364;2023-09-19T09:37:18;12.40;;;7.23;;
5690;SDS011;2870;42.680;23.364;2023-09-19T09:39:49;10.40;;;6.10;;
5690;SDS011;2870;42.680;23.364;2023-09-19T09:42:28;10.63;;;6.20;;
5690;SDS011;2870;42.680;23.364;2023-09-19T09:47:43;10.43;;;5.43;;
5690;SDS011;2870;42.680;23.364;2023-09-19T09:50:26;18.50;;;6.80;;
5690;SDS011;2870;42.680;23.364;2023-09-19T09:53:03;9.70;;;6.17;;
5690;SDS011;2870;42.680;23.364;2023-09-19T09:55:56;17.03;;;6.40;;
5690;SDS011;2870;42.680;23.364;2023-09-19T09:58:24;11.77;;;6.27;;
5690;SDS011;2870;42.680;23.364;2023-09-19T10:00:56;15.20;;;6.13;;
5690;SDS011;2870;42.680;23.364;2023-09-19T10:03:33;13.10;;;6.23;;
5690;SDS011;2870;42.680;23.364;2023-09-19T10:06:05;12.50;;;5.93;;
5690;SDS011;2870;42.680;23.364;2023-09-19T10:09:03;17.53;;;6.60;;
5690;SDS011;2870;42.680;23.364;2023-09-19T10:11:38;11.17;;;6.00;;
5690;SDS011;2870;42.680;23.364;2023-09-19T10:14:09;8.93;;;5.67;;
5690;SDS011;2870;42.680;23.364;2023-09-19T10:16:41;13.73;;;6.40;;
5690;SDS011;2870;42.680;23.364;2023-09-19T10:19:15;10.67;;;5.97;;
5690;SDS011;2870;42.680;23.364;2023-09-19T10:21:50;14.40;;;6.30;;
5690;SDS011;2870;42.680;23.364;2023-09-19T10:24:20;13.73;;;6.40;;
5690;SDS011;2870;42.680;23.364;2023-09-19T10:26:50;11.00;;;6.53;;
5690;SDS011;2870;42.680;23.364;2023-09-19T10:29:17;11.90;;;5.60;;
5690;SDS011;2870;42.680;23.364;2023-09-19T10:31:48;15.70;;;5.53;;
5690;SDS011;2870;42.680;23.364;2023-09-19T10:34:18;11.43;;;6.37;;
5690;SDS011;2870;42.680;23.364;2023-09-19T10:36:47;10.40;;;6.27;;
5690;SDS011;2870;42.680;23.364;2023-09-19T10:39:17;18.97;;;6.67;;
5690;SDS011;2870;42.680;23.364;2023-09-19T10:41:47;10.30;;;6.27;;
5690;SDS011;2870;42.680;23.364;2023-09-19T10:44:21;12.20;;;6.13;;
5690;SDS011;2870;42.680;23.364;2023-09-19T10:46:51;9.90;;;5.77;;
5690;SDS011;2870;42.680;23.364;2023-09-19T10:49:19;12.00;;;6.70;;
5690;SDS011;2870;42.680;23.364;2023-09-19T10:51:46;16.03;;;6.17;;
5690;SDS011;2870;42.680;23.364;2023-09-19T10:54:16;12.97;;;6.93;;
5690;SDS011;2870;42.680;23.364;2023-09-19T10:56:46;12.10;;;6.23;;
5690;SDS011;2870;42.680;23.364;2023-09-19T10:59:17;10.93;;;6.50;;
5690;SDS011;2870;42.680;23.364;2023-09-19T11:01:46;12.60;;;5.47;;
5690;SDS011;2870;42.680;23.364;2023-09-19T11:04:30;22.33;;;6.40;;
5690;SDS011;2870;42.680;23.364;2023-09-19T11:06:59;15.97;;;6.60;;
5690;SDS011;2870;42.680;23.364;2023-09-19T11:09:42;16.60;;;6.77;;
5690;SDS011;2870;42.680;23.364;2023-09-19T11:12:12;13.83;;;6.80;;
5690;SDS011;2870;42.680;23.364;2023-09-19T11:24:29;11.97;;;6.97;;
5690;SDS011;2870;42.680;23.364;2023-09-19T11:27:16;10.03;;;6.10;;
5690;SDS011;2870;42.680;23.364;2023-09-19T11:29:44;17.13;;;8.37;;
5690;SDS011;2870;42.680;23.364;2023-09-19T11:32:11;68.70;;;9.70;;
5690;SDS011;2870;42.680;23.364;2023-09-19T11:34:46;18.37;;;6.63;;
5690;SDS011;2870;42.680;23.364;2023-09-19T11:40:52;15.93;;;6.37;;
5690;SDS011;2870;42.680;23.364;2023-09-19T11:46:55;11.40;;;6.90;;
5690;SDS011;2870;42.680;23.364;2023-09-19T11:49:25;13.07;;;6.50;;
5690;SDS011;2870;42.680;23.364;2023-09-19T11:51:55;16.67;;;7.40;;
5690;SDS011;2870;42.680;23.364;2023-09-19T11:54:22;12.40;;;6.97;;
5690;SDS011;2870;42.680;23.364;2023-09-19T11:56:54;9.83;;;6.00;;
5690;SDS011;2870;42.680;23.364;2023-09-19T11:59:21;18.80;;;6.93;;
5690;SDS011;2870;42.680;23.364;2023-09-19T12:01:50;13.50;;;5.77;;
5690;SDS011;2870;42.680;23.364;2023-09-19T12:04:22;13.03;;;6.33;;
5690;SDS011;2870;42.680;23.364;2023-09-19T12:07:00;13.57;;;7.30;;
5690;SDS011;2870;42.680;23.364;2023-09-19T12:09:27;13.10;;;6.90;;
5690;SDS011;2870;42.680;23.364;2023-09-19T12:11:55;13.03;;;6.30;;
5690;SDS011;2870;42.680;23.364;2023-09-19T12:14:23;10.47;;;6.53;;
5690;SDS011;2870;42.680;23.364;2023-09-19T12:16:54;12.23;;;6.40;;
5690;SDS011;2870;42.680;23.364;2023-09-19T12:19:21;9.20;;;5.90;;
5690;SDS011;2870;42.680;23.364;2023-09-19T12:21:55;11.67;;;7.20;;
5690;SDS011;2870;42.680;23.364;2023-09-19T12:24:29;10.80;;;6.27;;
5690;SDS011;2870;42.680;23.364;2023-09-19T12:27:00;11.03;;;6.63;;
5690;SDS011;2870;42.680;23.364;2023-09-19T12:29:30;15.23;;;6.00;;
5690;SDS011;2870;42.680;23.364;2023-09-19T12:31:58;15.83;;;7.90;;
5690;SDS011;2870;42.680;23.364;2023-09-19T12:34:29;12.07;;;7.17;;
5690;SDS011;2870;42.680;23.364;2023-09-19T12:37:06;13.30;;;6.30;;
5690;SDS011;2870;42.680;23.364;2023-09-19T12:39:46;9.43;;;6.17;;
5690;SDS011;2870;42.680;23.364;2023-09-19T12:42:18;10.87;;;7.00;;
5690;SDS011;2870;42.680;23.364;2023-09-19T12:44:46;12.93;;;6.37;;
5690;SDS011;2870;42.680;23.364;2023-09-19T12:47:17;11.57;;;6.67;;
5690;SDS011;2870;42.680;23.364;2023-09-19T12:52:38;11.50;;;6.30;;
5690;SDS011;2870;42.680;23.364;2023-09-19T12:55:06;11.30;;;6.33;;
5690;SDS011;2870;42.680;23.364;2023-09-19T12:57:37;13.90;;;6.80;;
5690;SDS011;2870;42.680;23.364;2023-09-19T13:00:05;17.83;;;6.90;;
5690;SDS011;2870;42.680;23.364;2023-09-19T13:02:36;12.37;;;6.90;;
5690;SDS011;2870;42.680;23.364;2023-09-19T13:05:03;11.70;;;5.73;;
5690;SDS011;2870;42.680;23.364;2023-09-19T13:07:41;11.37;;;6.50;;
5690;SDS011;2870;42.680;23.364;2023-09-19T13:10:12;11.50;;;6.70;;
5690;SDS011;2870;42.680;23.364;2023-09-19T13:12:43;13.03;;;6.63;;
5690;SDS011;2870;42.680;23.364;2023-09-19T13:15:12;11.50;;;6.90;;
5690;SDS011;2870;42.680;23.364;2023-09-19T13:17:45;11.63;;;5.40;;
5690;SDS011;2870;42.680;23.364;2023-09-19T13:20:23;10.20;;;7.03;;
5690;SDS011;2870;42.680;23.364;2023-09-19T13:22:54;20.80;;;6.80;;
5690;SDS011;2870;42.680;23.364;2023-09-19T13:25:23;9.40;;;6.00;;
5690;SDS011;2870;42.680;23.364;2023-09-19T13:27:53;16.40;;;6.73;;
5690;SDS011;2870;42.680;23.364;2023-09-19T13:30:21;17.70;;;7.03;;
5690;SDS011;2870;42.680;23.364;2023-09-19T13:32:50;10.93;;;6.53;;
5690;SDS011;2870;42.680;23.364;2023-09-19T13:35:18;14.97;;;8.30;;
5690;SDS011;2870;42.680;23.364;2023-09-19T13:37:46;14.03;;;6.60;;
5690;SDS011;2870;42.680;23.364;2023-09-19T13:40:14;10.60;;;6.10;;
5690;SDS011;2870;42.680;23.364;2023-09-19T13:42:42;13.60;;;7.33;;
5690;SDS011;2870;42.680;23.364;2023-09-19T13:45:10;14.60;;;7.20;;
5690;SDS011;2870;42.680;23.364;2023-09-19T13:47:40;8.83;;;5.90;;
5690;SDS011;2870;42.680;23.364;2023-09-19T13:50:08;15.27;;;6.07;;
5690;SDS011;2870;42.680;23.364;2023-09-19T13:52:35;10.43;;;6.23;;
5690;SDS011;2870;42.680;23.364;2023-09-19T13:55:03;12.47;;;7.00;;
5690;SDS011;2870;42.680;23.364;2023-09-19T13:57:32;11.10;;;7.00;;
5690;SDS011;2870;42.680;23.364;2023-09-19T13:59:58;14.00;;;5.93;;
5690;SDS011;2870;42.680;23.364;2023-09-19T14:02:27;10.13;;;5.90;;
5690;SDS011;2870;42.680;23.364;2023-09-19T14:04:53;15.50;;;7.33;;
5690;SDS011;2870;42.680;23.364;2023-09-19T14:07:21;10.57;;;7.60;;
5690;SDS011;2870;42.680;23.364;2023-09-19T14:09:47;14.30;;;7.30;;
5690;SDS011;2870;42.680;23.364;2023-09-19T14:12:14;15.20;;;6.67;;
5690;SDS011;2870;42.680;23.364;2023-09-19T14:14:41;11.10;;;6.90;;
5690;SDS011;2870;42.680;23.364;2023-09-19T14:17:10;11.10;;;7.50;;
5690;SDS011;2870;42.680;23.364;2023-09-19T14:19:41;10.67;;;6.63;;
5690;SDS011;2870;42.680;23.364;2023-09-19T14:22:09;13.93;;;7.20;;
5690;SDS011;2870;42.680;23.364;2023-09-19T14:24:36;13.07;;;6.27;;
5690;SDS011;2870;42.680;23.364;2023-09-19T14:27:04;11.73;;;6.77;;
5690;SDS011;2870;42.680;23.364;2023-09-19T14:29:32;16.80;;;6.97;;
5690;SDS011;2870;42.680;23.364;2023-09-19T14:31:58;11.37;;;6.70;;
5690;SDS011;2870;42.680;23.364;2023-09-19T14:34:25;9.70;;;6.40;;
5690;SDS011;2870;42.680;23.364;2023-09-19T14:36:54;16.40;;;7.00;;
5690;SDS011;2870;42.680;23.364;2023-09-19T14:39:20;17.87;;;7.40;;
5690;SDS011;2870;42.680;23.364;2023-09-19T14:41:48;10.70;;;6.73;;
5690;SDS011;2870;42.680;23.364;2023-09-19T14:44:15;15.50;;;6.60;;
5690;SDS011;2870;42.680;23.364;2023-09-19T14:46:42;12.57;;;7.30;;
5690;SDS011;2870;42.680;23.364;2023-09-19T14:49:10;13.63;;;6.63;;
5690;SDS011;2870;42.680;23.364;2023-09-19T14:51:37;24.70;;;7.30;;
5690;SDS011;2870;42.680;23.364;2023-09-19T14:54:06;19.37;;;8.10;;
5690;SDS011;2870;42.680;23.364;2023-09-19T14:56:33;10.00;;;6.40;;
5690;SDS011;2870;42.680;23.364;2023-09-19T14:59:00;15.63;;;7.27;;
5690;SDS011;2870;42.680;23.364;2023-09-19T15:01:27;15.83;;;7.43;;
5690;SDS011;2870;42.680;23.364;2023-09-19T15:03:54;12.63;;;7.73;;
5690;SDS011;2870;42.680;23.364;2023-09-19T15:06:21;11.17;;;7.10;;
5690;SDS011;2870;42.680;23.364;2023-09-19T15:08:49;13.93;;;7.73;;
5690;SDS011;2870;42.680;23.364;2023-09-19T15:11:17;11.23;;;6.90;;
5690;SDS011;2870;42.680;23.364;2023-09-19T15:13:45;16.10;;;7.67;;
5690;SDS011;2870;42.680;23.364;2023-09-19T15:16:14;9.67;;;6.57;;
5690;SDS011;2870;42.680;23.364;2023-09-19T15:18:41;14.37;;;7.80;;
5690;SDS011;2870;42.680;23.364;2023-09-19T15:21:09;13.00;;;8.13;;
5690;SDS011;2870;42.680;23.364;2023-09-19T15:23:37;15.37;;;8.53;;
5690;SDS011;2870;42.680;23.364;2023-09-19T15:26:05;13.13;;;7.60;;
5690;SDS011;2870;42.680;23.364;2023-09-19T15:28:35;16.20;;;8.43;;